createdAt,value
2023-05-05T00:02:07.582Z,37.76
2023-05-05T00:05:09.397Z,37.81
2023-05-05T00:08:11.042Z,37.97
2023-05-05T00:11:12.654Z,37.75
2023-05-05T00:14:14.307Z,38.17
2023-05-05T00:17:15.977Z,38.14
2023-05-05T00:20:17.633Z,37.97
2023-05-05T00:23:19.814Z,38.10
2023-05-05T00:26:21.430Z,38.06
2023-05-05T00:29:23.025Z,38.31
2023-05-05T00:32:24.638Z,38.08
2023-05-05T00:35:26.965Z,38.26
2023-05-05T00:38:28.838Z,38.49
2023-05-05T00:41:31.626Z,38.09
2023-05-05T00:44:38.114Z,38.59
2023-05-05T00:47:42.026Z,38.55
2023-05-05T00:50:45.008Z,38.54
2023-05-05T00:53:47.685Z,38.53
2023-05-05T00:56:50.905Z,38.45
2023-05-05T00:59:53.127Z,38.56
2023-05-05T01:02:54.930Z,38.70
2023-05-05T01:06:15.615Z,38.21
2023-05-05T01:09:36.659Z,38.34
2023-05-05T01:12:49.036Z,38.29
2023-05-05T01:16:09.252Z,38.59
2023-05-05T01:19:35.575Z,38.71
2023-05-05T01:22:45.298Z,38.37
2023-05-05T01:26:12.539Z,38.53
2023-05-05T01:29:22.989Z,38.83
2023-05-05T01:32:27.218Z,38.54
2023-05-05T01:35:37.965Z,38.74
2023-05-05T01:38:42.514Z,38.82
2023-05-05T01:41:49.202Z,38.74
2023-05-05T01:44:53.256Z,38.38
2023-05-05T01:47:57.320Z,38.48
2023-05-05T01:51:03.007Z,38.94
2023-05-05T01:54:08.190Z,38.76
2023-05-05T01:57:11.382Z,38.77
2023-05-05T02:00:14.777Z,38.64
2023-05-05T02:03:18.096Z,38.80
2023-05-05T02:06:21.930Z,39.06
2023-05-05T02:09:26.816Z,39.02
2023-05-05T02:12:30.266Z,38.66
2023-05-05T02:15:33.767Z,38.80
2023-05-05T02:18:36.368Z,38.49
2023-05-05T02:21:38.170Z,38.99
2023-05-05T02:24:39.725Z,38.74
2023-05-05T02:27:43.796Z,38.52
2023-05-05T02:30:54.721Z,38.62
2023-05-05T02:33:58.019Z,38.66
2023-05-05T02:37:03.602Z,38.68
2023-05-05T02:40:08.677Z,38.71
2023-05-05T02:43:15.620Z,38.85
2023-05-05T02:46:17.925Z,38.93
2023-05-05T02:49:19.749Z,38.91
2023-05-05T02:52:21.490Z,38.98
2023-05-05T02:55:23.229Z,39.04
2023-05-05T02:58:31.575Z,38.61
2023-05-05T03:01:49.550Z,38.80
2023-05-05T03:05:24.877Z,38.54
2023-05-05T03:08:54.158Z,38.73
2023-05-05T03:12:04.407Z,38.75
2023-05-05T03:15:09.331Z,38.80
2023-05-05T03:18:12.136Z,38.77
2023-05-05T03:21:14.386Z,38.79
2023-05-05T03:24:20.352Z,38.72
2023-05-05T03:27:21.974Z,38.60
2023-05-05T03:30:23.551Z,38.70
2023-05-05T03:33:25.124Z,38.37
2023-05-05T03:36:29.196Z,38.23
2023-05-05T03:39:31.264Z,38.52
2023-05-05T03:42:32.824Z,38.54
2023-05-05T03:45:34.378Z,38.47
2023-05-05T03:48:36.143Z,38.48
2023-05-05T03:51:37.742Z,38.39
2023-05-05T03:54:39.384Z,38.10
2023-05-05T03:57:40.978Z,37.88
2023-05-05T04:00:42.576Z,38.35
2023-05-05T04:03:44.293Z,38.07
2023-05-05T04:06:45.968Z,37.90
2023-05-05T04:09:47.506Z,37.59
2023-05-05T04:12:49.211Z,37.56
2023-05-05T04:15:51.102Z,37.65
2023-05-05T04:18:52.719Z,37.75
2023-05-05T04:21:54.290Z,37.19
2023-05-05T04:24:55.903Z,37.50
2023-05-05T04:27:57.478Z,37.10
2023-05-05T04:31:01.169Z,37.19
2023-05-05T04:34:02.805Z,37.11
2023-05-05T04:37:04.378Z,37.08
2023-05-05T04:40:06.967Z,36.99
2023-05-05T04:43:08.700Z,36.72
2023-05-05T04:46:10.327Z,36.92
2023-05-05T04:49:11.924Z,36.75
2023-05-05T04:52:14.179Z,36.43
2023-05-05T04:55:15.817Z,36.54
2023-05-05T04:58:17.455Z,36.41
2023-05-05T05:01:19.022Z,36.59
2023-05-05T05:04:21.736Z,36.40
2023-05-05T05:07:23.476Z,36.42
2023-05-05T05:10:25.078Z,36.34
2023-05-05T05:13:26.673Z,36.32
2023-05-05T05:16:28.445Z,36.34
2023-05-05T05:19:30.037Z,36.28
2023-05-05T05:22:31.816Z,36.59
2023-05-05T05:25:33.408Z,36.72
2023-05-05T05:28:34.971Z,36.62
2023-05-05T05:31:36.908Z,36.44
2023-05-05T05:34:38.569Z,36.52
2023-05-05T05:37:40.123Z,36.28
2023-05-05T05:40:41.885Z,36.37
2023-05-05T05:43:43.456Z,36.31
2023-05-05T05:46:45.031Z,36.25
2023-05-05T05:49:46.627Z,36.16
2023-05-05T05:52:48.239Z,36.10
2023-05-05T05:55:49.792Z,36.11
2023-05-05T05:58:51.550Z,35.99
2023-05-05T06:01:53.449Z,36.24
2023-05-05T06:04:55.157Z,36.38
2023-05-05T06:07:56.883Z,36.24
2023-05-05T06:11:00.518Z,36.13
2023-05-05T06:14:02.142Z,36.21
2023-05-05T06:17:03.769Z,36.67
2023-05-05T06:20:06.212Z,37.16
2023-05-05T06:23:07.863Z,37.03
2023-05-05T06:26:09.469Z,37.24
2023-05-05T06:29:12.425Z,37.19
2023-05-05T06:32:14.161Z,37.55
2023-05-05T06:35:15.843Z,37.26
2023-05-05T06:38:17.399Z,37.49
2023-05-05T06:41:18.954Z,37.11
2023-05-05T06:44:20.526Z,36.99
2023-05-05T06:47:22.890Z,36.91
2023-05-05T06:50:24.460Z,37.05
2023-05-05T06:53:26.032Z,100.00
2023-05-05T06:56:28.076Z,60.65
2023-05-05T06:59:29.655Z,61.41
2023-05-05T07:02:31.752Z,60.55
2023-05-05T07:05:33.473Z,60.58
2023-05-05T07:08:35.087Z,61.97
2023-05-05T07:11:37.919Z,58.77
2023-05-05T07:14:39.527Z,58.28
2023-05-05T07:17:41.349Z,59.07
2023-05-05T07:20:44.491Z,58.17
2023-05-05T07:23:47.810Z,58.66
2023-05-05T07:26:49.597Z,58.41
2023-05-05T07:29:51.350Z,58.54
2023-05-05T07:32:52.976Z,58.06
2023-05-05T07:35:54.829Z,57.03
2023-05-05T07:38:56.547Z,57.73
2023-05-05T07:41:58.291Z,57.33
2023-05-05T07:44:59.884Z,56.05
2023-05-05T07:48:01.608Z,58.81
2023-05-05T07:51:03.884Z,56.76
2023-05-05T07:54:06.098Z,57.38
2023-05-05T07:57:07.704Z,55.65
2023-05-05T08:00:10.855Z,56.63
2023-05-05T08:03:13.114Z,56.28
2023-05-05T08:06:22.032Z,56.33
2023-05-05T08:09:23.702Z,54.56
2023-05-05T08:12:25.287Z,53.78
2023-05-05T08:15:26.867Z,54.07
2023-05-05T08:18:28.554Z,54.36
2023-05-05T08:21:30.169Z,54.95
2023-05-05T08:24:31.740Z,54.51
2023-05-05T08:27:35.308Z,56.08
2023-05-05T08:30:36.895Z,56.43
2023-05-05T08:33:38.506Z,56.43
2023-05-05T08:36:40.101Z,55.52
2023-05-05T08:39:41.741Z,55.95
2023-05-05T08:42:45.609Z,53.95
2023-05-05T08:45:47.858Z,56.42
2023-05-05T08:48:52.492Z,54.58
2023-05-05T08:51:54.890Z,56.15
2023-05-05T08:55:10.776Z,53.92
2023-05-05T08:58:13.767Z,54.83
2023-05-05T09:01:15.744Z,54.54
2023-05-05T09:04:19.190Z,49.35
2023-05-05T09:07:21.154Z,49.70
2023-05-05T09:10:24.672Z,47.19
2023-05-05T09:13:29.274Z,45.34
2023-05-05T09:16:30.851Z,46.27
2023-05-05T09:19:32.440Z,45.78
2023-05-05T09:22:39.386Z,45.46
2023-05-05T09:25:44.726Z,47.28
2023-05-05T09:28:52.674Z,46.68
2023-05-05T09:32:10.820Z,46.67
2023-05-05T09:35:12.471Z,48.75
2023-05-05T09:38:14.058Z,44.88
2023-05-05T09:41:23.622Z,45.06
2023-05-05T09:44:35.963Z,44.22
2023-05-05T09:47:38.001Z,44.60
2023-05-05T09:50:45.460Z,44.44
2023-05-05T09:53:47.133Z,42.49
2023-05-05T09:56:48.822Z,43.36
2023-05-05T10:00:01.391Z,44.34
2023-05-05T10:03:03.208Z,43.51
2023-05-05T10:06:07.714Z,43.68
2023-05-05T10:09:09.482Z,43.91
2023-05-05T10:12:11.104Z,44.21
2023-05-05T10:15:15.113Z,42.38
2023-05-05T10:18:23.686Z,41.54
2023-05-05T10:21:26.546Z,41.88
2023-05-05T10:24:52.538Z,39.71
2023-05-05T10:27:58.943Z,39.24
2023-05-05T10:31:07.656Z,40.17
2023-05-05T10:34:38.317Z,39.56
2023-05-05T10:37:41.610Z,39.96
2023-05-05T10:40:48.556Z,36.44
2023-05-05T10:43:51.682Z,34.74
2023-05-05T10:46:53.379Z,36.88
2023-05-05T10:50:09.419Z,36.45
2023-05-05T10:53:19.421Z,34.22
2023-05-05T10:56:29.261Z,33.76
2023-05-05T10:59:37.041Z,32.13
2023-05-05T11:02:40.200Z,34.49
2023-05-05T11:06:09.374Z,36.68
2023-05-05T11:09:29.663Z,33.15
2023-05-05T11:12:34.286Z,33.83
2023-05-05T11:15:38.021Z,33.25
2023-05-05T11:18:44.367Z,36.20
2023-05-05T11:22:04.433Z,34.11
2023-05-05T11:25:37.236Z,31.75
2023-05-05T11:28:57.495Z,32.35
2023-05-05T11:32:13.169Z,32.71
2023-05-05T11:35:15.562Z,29.35
2023-05-05T11:38:21.114Z,33.08
2023-05-05T11:41:34.436Z,31.98
2023-05-05T11:44:36.219Z,35.84
2023-05-05T11:47:37.889Z,35.15
2023-05-05T11:50:40.151Z,37.15
2023-05-05T11:53:46.057Z,35.83
2023-05-05T11:56:51.593Z,34.85
2023-05-05T11:59:58.763Z,31.35
2023-05-05T12:03:00.547Z,30.15
2023-05-05T12:06:03.759Z,29.92
2023-05-05T12:09:06.507Z,32.14
2023-05-05T12:12:08.108Z,31.02
2023-05-05T12:15:10.188Z,30.11
2023-05-05T12:18:19.299Z,30.57
2023-05-05T12:21:22.312Z,27.90
2023-05-05T12:24:24.086Z,29.88
2023-05-05T12:27:27.351Z,28.17
2023-05-05T12:30:29.027Z,29.03
2023-05-05T12:33:31.566Z,28.15
2023-05-05T12:36:34.071Z,26.03
2023-05-05T12:39:39.362Z,26.14
2023-05-05T12:42:41.343Z,25.95
2023-05-05T12:45:42.993Z,25.31
2023-05-05T12:48:47.395Z,25.89
2023-05-05T12:51:54.348Z,26.14
2023-05-05T12:54:57.813Z,27.34
2023-05-05T12:58:04.458Z,27.00
2023-05-05T13:01:10.807Z,25.60
2023-05-05T13:04:14.174Z,31.20
2023-05-05T13:07:19.633Z,28.22
2023-05-05T13:10:21.306Z,27.43
2023-05-05T13:13:22.875Z,26.83
2023-05-05T13:16:24.557Z,25.08
2023-05-05T13:19:26.693Z,24.63
2023-05-05T13:22:28.274Z,24.58
2023-05-05T13:25:29.866Z,24.81
2023-05-05T13:28:31.394Z,27.51
2023-05-05T13:31:33.079Z,28.07
2023-05-05T13:34:34.939Z,26.41
2023-05-05T13:37:36.553Z,26.35
2023-05-05T13:40:38.153Z,25.92
2023-05-05T13:43:39.729Z,27.43
2023-05-05T13:46:42.631Z,29.45
2023-05-05T13:49:44.283Z,28.10
2023-05-05T13:52:45.906Z,27.93
2023-05-05T13:55:47.662Z,27.51
2023-05-05T13:58:49.215Z,27.11
2023-05-05T14:01:50.792Z,27.60
2023-05-05T14:04:52.362Z,24.91
2023-05-05T14:07:56.642Z,26.67
2023-05-05T14:10:58.215Z,27.14
2023-05-05T14:13:59.803Z,25.65
2023-05-05T14:17:01.483Z,27.70
2023-05-05T14:20:03.652Z,29.07
2023-05-05T14:23:05.199Z,28.23
2023-05-05T14:26:08.884Z,28.34
2023-05-05T14:29:10.720Z,27.29
2023-05-05T14:32:12.389Z,28.23
2023-05-05T14:35:13.993Z,26.51
2023-05-05T14:38:15.663Z,26.45
2023-05-05T14:41:17.326Z,25.09
2023-05-05T14:44:18.953Z,24.66
2023-05-05T14:47:20.707Z,24.63
2023-05-05T14:50:22.457Z,27.16
2023-05-05T14:53:24.099Z,25.39
2023-05-05T14:56:26.544Z,25.09
2023-05-05T14:59:28.904Z,24.02
2023-05-05T15:02:30.848Z,26.44
2023-05-05T15:05:32.500Z,27.80
2023-05-05T15:08:34.306Z,27.12
2023-05-05T15:11:35.872Z,29.45
2023-05-05T15:14:38.210Z,28.67
2023-05-05T15:17:41.737Z,28.76
2023-05-05T15:20:43.584Z,25.08
2023-05-05T15:23:45.161Z,26.06
2023-05-05T15:26:46.708Z,25.52
2023-05-05T15:29:48.841Z,25.12
2023-05-05T15:32:50.553Z,24.43
2023-05-05T15:35:52.152Z,24.79
2023-05-05T15:38:53.708Z,26.07
2023-05-05T15:41:55.345Z,28.45
2023-05-05T15:44:56.899Z,27.86
2023-05-05T15:47:58.517Z,27.93
2023-05-05T15:51:00.115Z,27.62
2023-05-05T15:54:01.840Z,26.16
2023-05-05T15:57:03.450Z,27.29
2023-05-05T16:00:06.039Z,29.15
2023-05-05T16:03:07.747Z,27.19
2023-05-05T16:06:13.810Z,28.48
2023-05-05T16:09:15.386Z,27.71
2023-05-05T16:12:16.952Z,28.96
2023-05-05T16:15:18.531Z,25.55
2023-05-05T16:18:20.116Z,28.56
2023-05-05T16:21:21.697Z,29.94
2023-05-05T16:24:23.436Z,30.36
2023-05-05T16:27:24.994Z,27.97
2023-05-05T16:30:26.809Z,30.36
2023-05-05T16:33:28.864Z,30.17
2023-05-05T16:36:31.771Z,33.89
2023-05-05T16:39:33.995Z,35.98
2023-05-05T16:42:35.559Z,36.93
2023-05-05T16:45:37.157Z,37.95
2023-05-05T16:48:38.742Z,39.70
2023-05-05T16:51:40.850Z,40.76
2023-05-05T16:54:43.597Z,41.10
2023-05-05T16:57:45.436Z,42.73
2023-05-05T17:00:48.996Z,43.53
2023-05-05T17:03:50.631Z,43.81
2023-05-05T17:06:52.323Z,44.18
2023-05-05T17:09:53.916Z,44.53
2023-05-05T17:12:55.609Z,45.17
2023-05-05T17:15:57.419Z,45.69
2023-05-05T17:18:59.011Z,47.20
2023-05-05T17:22:01.303Z,48.75
2023-05-05T17:25:03.333Z,48.31
2023-05-05T17:28:05.265Z,50.93
2023-05-05T17:31:06.935Z,49.92
2023-05-05T17:34:08.511Z,50.61
2023-05-05T17:37:10.169Z,52.40
2023-05-05T17:40:11.887Z,54.18
2023-05-05T17:43:13.437Z,54.88
2023-05-05T17:46:15.038Z,54.43
2023-05-05T17:49:16.741Z,53.47
2023-05-05T17:52:18.350Z,54.52
2023-05-05T17:55:20.218Z,55.21
2023-05-05T17:58:21.826Z,57.76
2023-05-05T18:01:27.816Z,58.71
2023-05-05T18:04:29.451Z,58.98
2023-05-05T18:07:31.804Z,59.98
2023-05-05T18:10:33.420Z,59.67
2023-05-05T18:13:35.215Z,61.67
2023-05-05T18:16:36.813Z,61.77
2023-05-05T18:19:42.300Z,63.69
2023-05-05T18:22:45.432Z,61.44
2023-05-05T18:25:47.021Z,61.20
2023-05-05T18:28:48.619Z,62.17
2023-05-05T18:31:54.869Z,63.75
2023-05-05T18:34:56.593Z,64.42
2023-05-05T18:37:58.151Z,64.99
2023-05-05T18:40:59.718Z,67.76
2023-05-05T18:44:01.389Z,67.61
2023-05-05T18:47:03.043Z,65.64
2023-05-05T18:50:05.972Z,66.42
2023-05-05T18:53:07.563Z,68.05
2023-05-05T18:56:09.155Z,67.93
2023-05-05T18:59:10.702Z,71.03
2023-05-05T19:02:12.250Z,70.87
2023-05-05T19:05:13.834Z,69.46
2023-05-05T19:08:15.491Z,72.04
2023-05-05T19:11:17.090Z,71.65
2023-05-05T19:14:18.868Z,72.38
2023-05-05T19:17:20.456Z,72.49
2023-05-05T19:20:22.330Z,72.00
2023-05-05T19:23:23.914Z,71.59
2023-05-05T19:26:26.275Z,68.30
2023-05-05T19:29:27.978Z,60.80
2023-05-05T19:32:29.622Z,62.67
2023-05-05T19:35:31.370Z,67.47
2023-05-05T19:38:32.963Z,57.67
2023-05-05T19:41:35.463Z,42.25
2023-05-05T19:44:37.094Z,44.52
2023-05-05T19:47:38.724Z,52.57
2023-05-05T19:50:40.373Z,29.75
2023-05-05T19:53:42.979Z,0.00
2023-05-05T19:56:44.572Z,0.00
2023-05-05T19:59:48.558Z,0.00
2023-05-05T20:02:50.242Z,0.00
2023-05-05T20:05:51.805Z,0.00
2023-05-05T20:08:54.764Z,0.00
2023-05-05T20:11:58.675Z,0.00
2023-05-05T20:15:00.551Z,0.00
2023-05-05T20:18:02.172Z,0.00
2023-05-05T20:21:03.944Z,0.00
2023-05-05T20:24:06.447Z,0.00
2023-05-05T20:27:08.048Z,0.00
2023-05-05T20:30:10.734Z,0.00
2023-05-05T20:33:12.614Z,0.00
2023-05-05T20:36:14.211Z,0.00
2023-05-05T20:39:16.281Z,0.00
2023-05-05T20:42:17.876Z,0.00
2023-05-05T20:45:19.622Z,0.00
2023-05-05T20:48:21.222Z,0.00
2023-05-05T20:51:22.818Z,0.00
2023-05-05T20:54:24.366Z,0.00
2023-05-05T20:57:26.179Z,0.00
2023-05-05T21:00:27.829Z,0.00
2023-05-05T21:03:29.426Z,0.00
2023-05-05T21:06:32.323Z,0.00
2023-05-05T21:09:35.337Z,0.00
2023-05-05T21:12:37.329Z,0.02
2023-05-05T21:15:39.025Z,0.37
2023-05-05T21:18:40.768Z,1.01
2023-05-05T21:21:42.348Z,1.22
2023-05-05T21:24:43.935Z,1.40
2023-05-05T21:27:47.470Z,16.06
2023-05-05T21:31:10.396Z,22.10
2023-05-05T21:34:12.876Z,24.51
2023-05-05T21:37:14.436Z,24.71
2023-05-05T21:40:16.528Z,24.76
2023-05-05T21:43:18.161Z,24.88
2023-05-05T21:46:19.863Z,24.95
2023-05-05T21:49:21.463Z,25.03
2023-05-05T21:52:23.060Z,25.17
2023-05-05T21:55:24.752Z,25.40
2023-05-05T21:58:26.467Z,25.27
2023-05-05T22:01:28.167Z,25.13
2023-05-05T22:04:29.783Z,25.54
2023-05-05T22:07:33.043Z,25.75
2023-05-05T22:10:34.707Z,25.69
2023-05-05T22:13:37.585Z,25.75
2023-05-05T22:16:39.285Z,25.81
2023-05-05T22:19:40.889Z,26.80
2023-05-05T22:22:42.547Z,26.79
2023-05-05T22:25:44.528Z,27.13
2023-05-05T22:28:46.231Z,27.21
2023-05-05T22:31:47.843Z,27.14
2023-05-05T22:34:49.573Z,27.62
2023-05-05T22:37:51.133Z,27.79
2023-05-05T22:40:52.696Z,27.96
2023-05-05T22:43:54.343Z,28.00
2023-05-05T22:46:56.136Z,28.49
2023-05-05T22:49:58.357Z,28.46
2023-05-05T22:52:59.987Z,28.55
2023-05-05T22:56:01.659Z,28.57
2023-05-05T22:59:03.304Z,28.68
2023-05-05T23:02:05.539Z,29.10
2023-05-05T23:05:07.666Z,28.78
2023-05-05T23:08:09.863Z,29.07
2023-05-05T23:11:11.493Z,29.07
2023-05-05T23:14:13.061Z,28.99
2023-05-05T23:17:14.663Z,29.17
2023-05-05T23:20:16.254Z,29.20
2023-05-05T23:23:17.795Z,29.23
2023-05-05T23:26:19.610Z,29.49
2023-05-05T23:29:21.338Z,29.66
2023-05-05T23:32:23.211Z,29.43
2023-05-05T23:35:24.861Z,29.36
2023-05-05T23:38:26.469Z,29.59
2023-05-05T23:41:28.060Z,29.87
2023-05-05T23:44:29.899Z,29.52
2023-05-05T23:47:31.487Z,29.64
2023-05-05T23:50:33.095Z,29.99
2023-05-05T23:53:34.698Z,29.89
2023-05-05T23:56:36.291Z,29.66
2023-05-05T23:59:39.127Z,29.92
